Time;durP1;ratioP1;P1;durP2;ratioP2;P2;SDS_P1;SDS_P2;PMS_P1;PMS_P2;Temp;Humidity;BMP_temperature;BMP_pressure;BME280_temperature;BME280_humidity;BME280_pressure;Samples;Min_cycle;Max_cycle;Signal;HPM_P1;HPM_P2
2021/11/11 00:01:19;;;;;;;13.90;10.13;;;;;;;;;;4973952;28;20360;-72
2021/11/11 00:03:47;;;;;;;15.13;9.73;;;;;;;;;;4992080;28;20597;-73
2021/11/11 00:06:13;;;;;;;13.57;9.00;;;;;;;;;;4973913;28;20229;-73
2021/11/11 00:08:41;;;;;;;16.00;10.37;;;;;;;;;;4977367;28;20233;-72
2021/11/11 00:11:10;;;;;;;17.20;11.00;;;;;;;;;;4992423;28;20217;-71
2021/11/11 00:13:35;;;;;;;15.33;11.90;;;;;;;;;;4961710;28;20814;-72
2021/11/11 00:16:01;;;;;;;14.77;10.50;;;;;;;;;;4960177;28;20221;-73
2021/11/11 00:18:27;;;;;;;14.80;11.97;;;;;;;;;;4975032;28;21146;-71
2021/11/11 00:20:56;;;;;;;14.53;11.50;;;;;;;;;;4992946;28;20229;-71
2021/11/11 00:23:22;;;;;;;21.80;16.17;;;;;;;;;;4959168;28;20217;-71
2021/11/11 00:25:48;;;;;;;19.87;14.80;;;;;;;;;;4958404;28;20668;-74
2021/11/11 00:28:18;;;;;;;18.87;14.40;;;;;;;;;;4963317;28;20222;-71
2021/11/11 00:30:51;;;;;;;20.03;14.50;;;;;;;;;;4995131;28;20269;-73
2021/11/11 00:33:16;;;;;;;16.30;11.30;;;;;;;;;;4980493;28;20229;-73
2021/11/11 00:35:42;;;;;;;18.10;11.67;;;;;;;;;;4968098;28;20225;-73
2021/11/11 00:38:08;;;;;;;18.10;11.20;;;;;;;;;;4975150;28;20758;-73
2021/11/11 00:40:36;;;;;;;15.53;10.93;;;;;;;;;;4972086;28;20218;-75
2021/11/11 00:43:01;;;;;;;15.60;10.93;;;;;;;;;;4961632;28;20225;-74
2021/11/11 00:45:27;;;;;;;16.60;11.47;;;;;;;;;;4959498;28;20607;-74
2021/11/11 00:47:54;;;;;;;16.80;10.30;;;;;;;;;;4988885;28;20984;-71
2021/11/11 00:50:20;;;;;;;15.90;10.60;;;;;;;;;;4947200;28;20217;-72
2021/11/11 00:52:47;;;;;;;15.97;10.80;;;;;;;;;;4973501;28;20229;-72
2021/11/11 00:55:14;;;;;;;17.73;10.37;;;;;;;;;;4995812;28;20254;-72
2021/11/11 00:57:46;;;;;;;14.30;10.43;;;;;;;;;;4969775;28;20217;-72
2021/11/11 01:00:15;;;;;;;18.63;11.87;;;;;;;;;;4973244;28;20740;-72
2021/11/11 01:02:46;;;;;;;15.43;10.77;;;;;;;;;;4973898;28;20214;-72
2021/11/11 01:05:15;;;;;;;104.10;63.50;;;;;;;;;;4973325;28;20217;-72
2021/11/11 01:07:40;;;;;;;38.60;26.67;;;;;;;;;;4942553;28;20654;-73
2021/11/11 01:10:07;;;;;;;84.40;50.07;;;;;;;;;;4973399;28;20296;-72
2021/11/11 01:12:33;;;;;;;87.93;49.17;;;;;;;;;;4953998;28;20221;-73
2021/11/11 01:15:01;;;;;;;72.10;40.97;;;;;;;;;;4953756;28;20276;-73
2021/11/11 01:17:26;;;;;;;38.90;22.43;;;;;;;;;;4971121;28;20692;-72
2021/11/11 01:19:52;;;;;;;73.23;39.80;;;;;;;;;;4954447;28;20329;-74
2021/11/11 01:22:20;;;;;;;40.70;26.20;;;;;;;;;;4955266;28;20282;-72
2021/11/11 01:24:46;;;;;;;26.27;17.33;;;;;;;;;;4975009;28;20221;-72
2021/11/11 01:27:14;;;;;;;29.87;20.10;;;;;;;;;;4951217;28;20707;-73
2021/11/11 01:29:43;;;;;;;28.93;20.77;;;;;;;;;;4954310;28;20259;-73
2021/11/11 01:32:12;;;;;;;22.90;16.93;;;;;;;;;;4956864;28;20272;-72
2021/11/11 01:34:40;;;;;;;18.03;13.60;;;;;;;;;;4957650;28;20308;-72
2021/11/11 01:37:09;;;;;;;17.57;13.67;;;;;;;;;;4942840;28;20600;-72
2021/11/11 01:39:38;;;;;;;16.93;12.27;;;;;;;;;;4938762;28;20715;-73
2021/11/11 01:42:07;;;;;;;19.33;13.73;;;;;;;;;;4949077;28;20218;-73
2021/11/11 01:44:36;;;;;;;16.80;13.63;;;;;;;;;;4956951;28;20225;-74
2021/11/11 01:47:05;;;;;;;18.80;13.13;;;;;;;;;;4946259;28;20268;-73
2021/11/11 01:49:32;;;;;;;19.23;12.90;;;;;;;;;;4970336;28;20708;-73
2021/11/11 01:51:58;;;;;;;19.93;13.50;;;;;;;;;;4965519;28;20723;-72
2021/11/11 01:54:26;;;;;;;21.50;13.20;;;;;;;;;;4956465;28;20606;-74
2021/11/11 01:57:01;;;;;;;19.63;13.07;;;;;;;;;;4965404;28;20240;-73
2021/11/11 01:59:30;;;;;;;22.43;14.20;;;;;;;;;;4957575;28;20271;-73
2021/11/11 02:02:00;;;;;;;20.03;14.10;;;;;;;;;;4972998;28;20687;-73
2021/11/11 02:04:36;;;;;;;18.90;13.63;;;;;;;;;;4957502;28;20221;-73
2021/11/11 02:07:05;;;;;;;18.73;13.67;;;;;;;;;;4948075;28;20226;-73
2021/11/11 02:09:36;;;;;;;21.43;13.63;;;;;;;;;;4973717;28;20229;-73
2021/11/11 02:12:18;;;;;;;20.47;13.57;;;;;;;;;;4939030;28;20221;-73
2021/11/11 02:14:54;;;;;;;19.63;13.57;;;;;;;;;;4961933;28;20651;-72
2021/11/11 02:17:28;;;;;;;20.63;14.40;;;;;;;;;;4945029;28;20277;-74
2021/11/11 02:20:06;;;;;;;20.80;13.53;;;;;;;;;;4961240;28;20272;-73
2021/11/11 02:22:51;;;;;;;18.57;14.50;;;;;;;;;;4993876;28;20392;-73
2021/11/11 02:25:19;;;;;;;21.03;14.77;;;;;;;;;;4949594;28;20228;-73
2021/11/11 02:27:48;;;;;;;21.37;15.47;;;;;;;;;;4959884;28;20225;-73
2021/11/11 02:30:15;;;;;;;21.03;14.60;;;;;;;;;;4960340;28;20287;-73
2021/11/11 02:32:45;;;;;;;20.97;14.73;;;;;;;;;;4960252;28;20228;-73
2021/11/11 02:35:14;;;;;;;19.40;14.87;;;;;;;;;;4944120;28;20305;-73
2021/11/11 02:37:44;;;;;;;23.67;15.03;;;;;;;;;;4944616;28;20225;-72
2021/11/11 02:40:41;;;;;;;23.03;14.80;;;;;;;;;;4957944;28;20655;-73
2021/11/11 02:43:07;;;;;;;20.70;15.60;;;;;;;;;;4957114;28;20238;-73
2021/11/11 02:45:37;;;;;;;20.53;15.57;;;;;;;;;;4951449;28;20280;-73
2021/11/11 02:48:08;;;;;;;23.17;14.97;;;;;;;;;;4945083;28;20660;-73
2021/11/11 02:50:43;;;;;;;21.57;15.93;;;;;;;;;;4960441;28;20311;-73
2021/11/11 02:53:09;;;;;;;21.30;15.97;;;;;;;;;;4959926;28;20360;-73
2021/11/11 02:55:41;;;;;;;20.50;16.03;;;;;;;;;;4983710;28;20219;-73
2021/11/11 02:58:10;;;;;;;27.50;17.00;;;;;;;;;;4956905;28;20758;-73
2021/11/11 03:00:56;;;;;;;24.67;15.87;;;;;;;;;;4926312;28;20229;-72
2021/11/11 03:03:30;;;;;;;22.23;16.13;;;;;;;;;;4979084;28;20221;-73
2021/11/11 03:06:01;;;;;;;25.70;17.13;;;;;;;;;;4960129;28;20651;-73
2021/11/11 03:08:28;;;;;;;22.97;15.87;;;;;;;;;;4975438;28;20233;-73
2021/11/11 03:10:59;;;;;;;23.30;16.30;;;;;;;;;;4952952;28;20301;-72
2021/11/11 03:13:35;;;;;;;25.97;16.83;;;;;;;;;;4974899;28;20248;-72
2021/11/11 03:16:08;;;;;;;22.00;15.80;;;;;;;;;;4975792;28;20228;-72
2021/11/11 03:18:36;;;;;;;24.40;16.73;;;;;;;;;;4938189;28;20241;-72
2021/11/11 03:21:02;;;;;;;25.37;17.37;;;;;;;;;;4932078;28;20243;-71
2021/11/11 03:23:27;;;;;;;25.40;17.07;;;;;;;;;;4947223;28;20217;-72
2021/11/11 03:25:56;;;;;;;25.23;17.17;;;;;;;;;;4951323;28;20245;-72
2021/11/11 03:28:29;;;;;;;22.33;16.93;;;;;;;;;;4964060;28;20391;-72
2021/11/11 03:30:55;;;;;;;25.30;16.50;;;;;;;;;;4975463;28;20226;-72
2021/11/11 03:33:23;;;;;;;21.60;16.03;;;;;;;;;;4964303;28;20307;-72
2021/11/11 03:35:49;;;;;;;24.07;16.07;;;;;;;;;;4943666;28;20280;-73
2021/11/11 03:38:19;;;;;;;22.23;16.20;;;;;;;;;;4974060;28;20210;-73
2021/11/11 03:40:46;;;;;;;23.83;16.20;;;;;;;;;;4942244;28;20253;-72
2021/11/11 03:43:30;;;;;;;23.03;15.93;;;;;;;;;;4960894;28;20224;-72
2021/11/11 03:46:04;;;;;;;22.17;16.40;;;;;;;;;;4973990;28;20216;-72
2021/11/11 03:48:32;;;;;;;25.77;16.47;;;;;;;;;;4967616;28;20221;-73
2021/11/11 03:51:03;;;;;;;22.27;17.07;;;;;;;;;;4958594;28;20699;-73
2021/11/11 03:53:29;;;;;;;26.77;19.67;;;;;;;;;;4974431;28;20229;-72
2021/11/11 03:55:57;;;;;;;29.73;17.93;;;;;;;;;;4942564;28;20267;-73
2021/11/11 03:58:23;;;;;;;22.93;17.03;;;;;;;;;;4957965;28;20224;-73
2021/11/11 04:00:49;;;;;;;24.00;17.00;;;;;;;;;;4958691;28;20596;-73
2021/11/11 04:03:15;;;;;;;25.40;16.97;;;;;;;;;;4958901;28;20214;-73
2021/11/11 04:05:42;;;;;;;24.27;17.13;;;;;;;;;;4958455;28;20217;-73
2021/11/11 04:08:17;;;;;;;23.30;15.77;;;;;;;;;;4943249;28;20216;-73
2021/11/11 04:10:49;;;;;;;26.30;15.80;;;;;;;;;;4959290;28;20228;-73
2021/11/11 04:13:18;;;;;;;21.80;15.97;;;;;;;;;;4942449;28;20225;-74
2021/11/11 04:15:45;;;;;;;21.93;15.90;;;;;;;;;;4974565;28;20283;-73
2021/11/11 04:18:11;;;;;;;22.37;16.53;;;;;;;;;;4973947;28;20226;-72
2021/11/11 04:20:37;;;;;;;23.17;15.47;;;;;;;;;;4957456;28;20279;-73
2021/11/11 04:23:08;;;;;;;21.23;15.03;;;;;;;;;;4968348;28;20213;-73
2021/11/11 04:28:34;;;;;;;26.07;15.13;;;;;;;;;;4940754;28;20218;-71
2021/11/11 04:31:06;;;;;;;24.10;15.80;;;;;;;;;;4969979;28;20222;-71
2021/11/11 04:33:35;;;;;;;25.27;16.37;;;;;;;;;;4942145;28;20303;-73
2021/11/11 04:36:24;;;;;;;23.40;16.23;;;;;;;;;;4956765;28;20572;-72
2021/11/11 04:43:54;;;;;;;22.07;16.23;;;;;;;;;;4957911;28;20220;-72
2021/11/11 05:03:06;;;;;;;27.70;16.87;;;;;;;;;;4940898;28;20217;-72
2021/11/11 05:05:38;;;;;;;25.10;18.07;;;;;;;;;;4976596;28;20218;-72
2021/11/11 05:08:07;;;;;;;29.17;18.03;;;;;;;;;;4972571;28;20210;-72
2021/11/11 05:10:38;;;;;;;28.40;18.97;;;;;;;;;;4942937;28;20237;-72
2021/11/11 05:13:06;;;;;;;29.43;19.00;;;;;;;;;;4954333;28;20607;-72
2021/11/11 05:15:38;;;;;;;24.43;18.10;;;;;;;;;;4958334;28;20225;-72
2021/11/11 05:18:07;;;;;;;28.50;20.20;;;;;;;;;;4941427;28;20217;-73
2021/11/11 05:20:35;;;;;;;29.30;21.00;;;;;;;;;;4963386;28;20306;-72
2021/11/11 05:23:01;;;;;;;29.80;20.70;;;;;;;;;;4922353;28;20222;-73
2021/11/11 05:25:32;;;;;;;34.10;21.13;;;;;;;;;;4930204;28;20221;-73
2021/11/11 05:28:00;;;;;;;30.47;20.70;;;;;;;;;;4954114;28;20222;-73
2021/11/11 05:30:32;;;;;;;31.13;22.73;;;;;;;;;;4949041;28;20228;-72
2021/11/11 05:32:58;;;;;;;38.53;23.27;;;;;;;;;;4958007;28;20721;-73
2021/11/11 05:35:28;;;;;;;33.73;22.90;;;;;;;;;;4962907;28;20691;-74
2021/11/11 05:37:57;;;;;;;32.23;23.70;;;;;;;;;;4973198;28;20214;-72
2021/11/11 05:40:28;;;;;;;39.27;23.70;;;;;;;;;;4967808;28;20218;-74
2021/11/11 05:42:57;;;;;;;32.57;22.57;;;;;;;;;;4949987;28;20213;-73
2021/11/11 05:45:27;;;;;;;32.37;21.80;;;;;;;;;;4940654;28;20221;-72
2021/11/11 05:47:58;;;;;;;33.70;24.13;;;;;;;;;;4960666;28;20695;-74
2021/11/11 05:50:26;;;;;;;31.13;23.47;;;;;;;;;;4960808;28;20224;-72
2021/11/11 05:52:52;;;;;;;33.57;23.47;;;;;;;;;;4960841;28;20240;-71
2021/11/11 05:55:20;;;;;;;32.67;22.43;;;;;;;;;;4941571;28;20300;-72
2021/11/11 05:57:48;;;;;;;35.87;23.87;;;;;;;;;;4926298;28;20214;-72
2021/11/11 06:00:16;;;;;;;37.00;25.10;;;;;;;;;;4944949;28;20669;-73
2021/11/11 06:02:47;;;;;;;33.80;23.10;;;;;;;;;;4962239;28;20222;-72
2021/11/11 06:05:21;;;;;;;39.87;25.07;;;;;;;;;;4976965;28;20296;-73
2021/11/11 06:07:53;;;;;;;38.40;25.40;;;;;;;;;;4962392;28;20224;-73
2021/11/11 06:10:21;;;;;;;38.60;25.10;;;;;;;;;;4978398;28;20213;-71
2021/11/11 06:12:46;;;;;;;37.80;24.50;;;;;;;;;;4946531;28;20220;-73
2021/11/11 06:15:13;;;;;;;39.17;24.97;;;;;;;;;;4956085;28;20683;-72
2021/11/11 06:17:44;;;;;;;37.50;24.83;;;;;;;;;;4978643;28;20218;-72
2021/11/11 06:20:20;;;;;;;37.80;25.07;;;;;;;;;;4962499;28;20745;-71
2021/11/11 06:22:48;;;;;;;42.03;26.43;;;;;;;;;;4980142;28;20229;-72
2021/11/11 06:25:20;;;;;;;39.37;26.30;;;;;;;;;;4976853;28;20226;-72
2021/11/11 06:27:50;;;;;;;38.90;26.03;;;;;;;;;;4974641;28;20217;-72
2021/11/11 06:30:18;;;;;;;41.40;27.50;;;;;;;;;;4960224;28;20303;-73
2021/11/11 06:32:47;;;;;;;35.20;26.67;;;;;;;;;;4962130;28;20300;-73
2021/11/11 06:35:16;;;;;;;38.93;27.17;;;;;;;;;;4942670;28;20234;-72
2021/11/11 06:37:44;;;;;;;42.53;28.23;;;;;;;;;;4942506;28;20244;-73
2021/11/11 06:40:12;;;;;;;43.87;27.03;;;;;;;;;;4958083;28;20225;-73
2021/11/11 06:42:42;;;;;;;42.83;30.67;;;;;;;;;;4973261;28;20234;-73
2021/11/11 06:45:12;;;;;;;46.57;28.80;;;;;;;;;;4991421;28;20217;-73
2021/11/11 06:47:42;;;;;;;41.30;28.10;;;;;;;;;;4992162;28;20221;-74
2021/11/11 06:50:11;;;;;;;40.43;27.60;;;;;;;;;;4959230;28;20217;-72
2021/11/11 06:52:39;;;;;;;41.33;28.53;;;;;;;;;;4974720;28;20221;-73
2021/11/11 06:55:08;;;;;;;42.47;29.10;;;;;;;;;;4974870;28;20337;-73
2021/11/11 06:57:36;;;;;;;43.00;29.23;;;;;;;;;;4959519;28;20225;-73
2021/11/11 07:00:11;;;;;;;40.13;27.83;;;;;;;;;;4960363;28;20222;-72
2021/11/11 07:02:37;;;;;;;45.60;29.60;;;;;;;;;;4957229;28;20715;-73
2021/11/11 07:05:06;;;;;;;45.30;30.20;;;;;;;;;;4940609;28;20241;-73
2021/11/11 07:07:35;;;;;;;42.47;28.97;;;;;;;;;;4954789;28;20229;-72
2021/11/11 07:10:01;;;;;;;44.33;30.23;;;;;;;;;;4976484;28;20222;-73
2021/11/11 07:12:29;;;;;;;47.43;31.30;;;;;;;;;;4992836;28;20228;-73
2021/11/11 07:14:55;;;;;;;46.87;30.13;;;;;;;;;;4993547;28;20229;-73
2021/11/11 07:17:23;;;;;;;45.27;30.03;;;;;;;;;;4975156;28;20699;-74
2021/11/11 07:20:10;;;;;;;43.13;30.07;;;;;;;;;;4991690;28;20213;-73
2021/11/11 07:22:36;;;;;;;44.20;29.20;;;;;;;;;;4968448;28;20232;-74
2021/11/11 07:25:04;;;;;;;41.97;30.37;;;;;;;;;;4975444;28;20633;-75
2021/11/11 07:27:30;;;;;;;44.40;30.57;;;;;;;;;;4991210;28;20213;-73
2021/11/11 07:29:56;;;;;;;44.57;31.70;;;;;;;;;;4944733;28;20301;-73
2021/11/11 07:32:24;;;;;;;48.03;30.97;;;;;;;;;;4975465;28;20886;-73
2021/11/11 07:34:52;;;;;;;46.03;31.57;;;;;;;;;;4992817;28;20675;-73
2021/11/11 07:37:17;;;;;;;48.70;32.03;;;;;;;;;;4964353;28;20223;-73
2021/11/11 07:39:50;;;;;;;46.53;32.40;;;;;;;;;;4959639;28;20294;-74
2021/11/11 07:42:22;;;;;;;48.13;32.43;;;;;;;;;;4956963;28;20726;-73
2021/11/11 07:44:57;;;;;;;45.30;30.70;;;;;;;;;;4948448;28;20218;-72
2021/11/11 07:47:28;;;;;;;48.97;32.70;;;;;;;;;;4970544;28;20229;-72
2021/11/11 07:49:59;;;;;;;48.07;32.77;;;;;;;;;;4973554;28;20226;-73
2021/11/11 07:52:25;;;;;;;53.83;33.10;;;;;;;;;;4963212;28;20214;-73
2021/11/11 07:54:55;;;;;;;50.63;32.40;;;;;;;;;;4958626;28;20248;-73
2021/11/11 07:57:27;;;;;;;51.73;31.57;;;;;;;;;;4991640;28;20232;-73
2021/11/11 07:59:53;;;;;;;49.87;34.07;;;;;;;;;;4953001;28;20279;-73
2021/11/11 08:02:20;;;;;;;51.00;33.37;;;;;;;;;;4960506;28;20784;-72
2021/11/11 08:04:46;;;;;;;46.67;31.13;;;;;;;;;;4940907;28;20226;-72
2021/11/11 08:07:17;;;;;;;49.90;31.20;;;;;;;;;;4948663;28;20254;-72
2021/11/11 08:09:46;;;;;;;51.73;34.20;;;;;;;;;;4951385;28;20309;-72
2021/11/11 08:12:11;;;;;;;45.77;32.13;;;;;;;;;;4955596;28;20232;-73
2021/11/11 08:14:39;;;;;;;48.10;31.63;;;;;;;;;;4990177;28;20594;-71
2021/11/11 08:17:08;;;;;;;48.80;31.53;;;;;;;;;;4958683;28;20240;-74
2021/11/11 08:19:36;;;;;;;46.07;31.20;;;;;;;;;;4959209;28;20225;-73
2021/11/11 08:22:02;;;;;;;47.53;32.93;;;;;;;;;;4974846;28;20606;-72
2021/11/11 08:24:28;;;;;;;48.43;32.23;;;;;;;;;;4938158;28;20277;-72
2021/11/11 08:26:56;;;;;;;42.17;30.33;;;;;;;;;;4971352;28;20209;-72
2021/11/11 08:29:21;;;;;;;42.43;30.77;;;;;;;;;;4989705;28;20271;-73
2021/11/11 08:31:47;;;;;;;47.60;31.93;;;;;;;;;;4956420;28;20231;-74
2021/11/11 08:34:12;;;;;;;46.03;32.50;;;;;;;;;;4973515;28;20229;-73
2021/11/11 08:36:42;;;;;;;42.67;30.07;;;;;;;;;;4959103;28;20725;-73
2021/11/11 08:39:08;;;;;;;42.27;29.97;;;;;;;;;;4953550;28;20209;-74
2021/11/11 08:41:34;;;;;;;40.73;29.00;;;;;;;;;;4997699;28;20229;-73
2021/11/11 08:44:01;;;;;;;39.80;28.77;;;;;;;;;;4990928;28;20233;-72
2021/11/11 08:46:32;;;;;;;40.37;26.83;;;;;;;;;;4990748;28;20273;-72
2021/11/11 08:49:00;;;;;;;38.17;27.57;;;;;;;;;;4972907;28;20226;-72
2021/11/11 08:51:26;;;;;;;35.60;26.20;;;;;;;;;;4941035;28;20225;-73
2021/11/11 08:53:51;;;;;;;35.63;26.20;;;;;;;;;;4974620;28;20305;-72
2021/11/11 08:56:19;;;;;;;38.50;27.40;;;;;;;;;;4972653;28;20293;-72
2021/11/11 08:58:46;;;;;;;34.87;25.00;;;;;;;;;;4971777;28;20232;-73
2021/11/11 09:01:16;;;;;;;36.37;24.40;;;;;;;;;;4986224;28;20246;-72
2021/11/11 09:03:46;;;;;;;36.40;23.87;;;;;;;;;;4994574;28;20228;-71
2021/11/11 09:06:14;;;;;;;32.90;22.63;;;;;;;;;;4995028;28;20331;-72
2021/11/11 09:08:39;;;;;;;31.30;23.70;;;;;;;;;;5000715;28;20320;-73
2021/11/11 09:11:05;;;;;;;32.43;21.33;;;;;;;;;;4969741;28;20304;-74
2021/11/11 09:13:31;;;;;;;29.43;22.60;;;;;;;;;;4962681;28;20253;-73
2021/11/11 09:16:02;;;;;;;30.30;23.40;;;;;;;;;;4942673;28;20221;-72
2021/11/11 09:18:29;;;;;;;32.87;22.87;;;;;;;;;;4990428;28;20221;-73
2021/11/11 09:20:57;;;;;;;30.17;22.90;;;;;;;;;;4954654;28;20707;-74
2021/11/11 09:23:23;;;;;;;30.27;22.27;;;;;;;;;;4959403;28;20818;-72
2021/11/11 09:25:51;;;;;;;31.33;21.77;;;;;;;;;;4958927;28;20229;-72
2021/11/11 09:28:17;;;;;;;27.83;21.67;;;;;;;;;;4953528;28;20629;-74
2021/11/11 09:30:42;;;;;;;26.50;21.87;;;;;;;;;;4973727;28;20225;-72
2021/11/11 09:33:10;;;;;;;25.47;19.30;;;;;;;;;;4961322;28;20662;-73
2021/11/11 09:35:39;;;;;;;26.00;18.60;;;;;;;;;;4939783;28;20309;-73
2021/11/11 09:38:04;;;;;;;23.87;18.97;;;;;;;;;;4941331;28;20301;-73
2021/11/11 09:40:32;;;;;;;24.53;19.00;;;;;;;;;;4948387;28;20226;-74
2021/11/11 09:42:58;;;;;;;23.77;18.27;;;;;;;;;;4948650;28;20221;-72
2021/11/11 09:45:28;;;;;;;25.80;18.33;;;;;;;;;;4972316;28;20921;-72
2021/11/11 09:47:54;;;;;;;25.33;17.47;;;;;;;;;;4991375;28;20224;-72
2021/11/11 09:50:22;;;;;;;23.07;17.20;;;;;;;;;;4972261;28;20595;-72
2021/11/11 09:52:50;;;;;;;21.53;17.33;;;;;;;;;;4972794;28;20239;-73
2021/11/11 10:00:50;;;;;;;21.17;16.40;;;;;;;;;;4957181;28;20695;-72
2021/11/11 10:03:19;;;;;;;27.07;17.03;;;;;;;;;;4969726;28;20218;-72
2021/11/11 10:05:45;;;;;;;22.63;16.10;;;;;;;;;;4952958;28;20268;-72
2021/11/11 10:08:36;;;;;;;22.07;15.97;;;;;;;;;;4957100;28;20233;-72
2021/11/11 10:11:11;;;;;;;22.17;14.97;;;;;;;;;;4954944;28;20242;-73
2021/11/11 10:13:39;;;;;;;20.53;14.90;;;;;;;;;;4944334;28;20240;-74
2021/11/11 10:16:09;;;;;;;18.27;14.23;;;;;;;;;;4988942;28;20762;-73
2021/11/11 10:18:51;;;;;;;18.63;14.40;;;;;;;;;;4991531;28;20225;-73
2021/11/11 10:21:31;;;;;;;18.17;13.87;;;;;;;;;;4974585;28;20235;-73
2021/11/11 10:23:59;;;;;;;19.40;14.03;;;;;;;;;;4991626;28;20240;-72
2021/11/11 10:26:40;;;;;;;23.20;14.87;;;;;;;;;;4924052;28;20229;-74
2021/11/11 10:29:07;;;;;;;18.17;14.03;;;;;;;;;;4955830;28;20222;-75
2021/11/11 10:31:32;;;;;;;16.60;13.27;;;;;;;;;;4955156;28;20700;-74
2021/11/11 10:34:10;;;;;;;17.83;12.27;;;;;;;;;;4958667;28;20234;-72
2021/11/11 10:36:44;;;;;;;15.53;13.10;;;;;;;;;;4926323;28;20226;-73
2021/11/11 10:39:15;;;;;;;17.90;12.43;;;;;;;;;;4943877;28;20218;-73
2021/11/11 10:41:43;;;;;;;24.67;17.00;;;;;;;;;;4974755;28;20308;-73
2021/11/11 10:44:31;;;;;;;21.47;15.97;;;;;;;;;;4971852;28;20240;-73
2021/11/11 10:46:57;;;;;;;24.07;17.83;;;;;;;;;;4944240;28;20222;-74
2021/11/11 10:49:31;;;;;;;27.77;19.13;;;;;;;;;;4958470;28;20214;-73
2021/11/11 10:52:24;;;;;;;30.07;20.23;;;;;;;;;;4961753;28;20224;-73
2021/11/11 10:55:00;;;;;;;15.33;12.00;;;;;;;;;;4960385;28;20237;-73
2021/11/11 10:57:36;;;;;;;15.87;12.33;;;;;;;;;;4960214;28;20220;-72
2021/11/11 11:00:12;;;;;;;18.17;12.23;;;;;;;;;;4945977;28;20213;-73
2021/11/11 11:02:56;;;;;;;17.27;12.17;;;;;;;;;;4976797;28;20767;-73
2021/11/11 11:05:32;;;;;;;15.60;11.93;;;;;;;;;;4979338;28;20221;-72
2021/11/11 11:08:04;;;;;;;17.60;12.67;;;;;;;;;;4980210;28;20252;-73
2021/11/11 11:10:30;;;;;;;16.03;11.70;;;;;;;;;;4981604;28;20229;-73
2021/11/11 11:12:56;;;;;;;20.43;11.80;;;;;;;;;;4969799;28;20217;-74
2021/11/11 11:15:40;;;;;;;15.90;11.13;;;;;;;;;;4948897;28;20244;-73
2021/11/11 11:18:06;;;;;;;18.70;11.13;;;;;;;;;;4973501;28;20317;-74
2021/11/11 11:20:32;;;;;;;16.37;11.87;;;;;;;;;;4981430;28;20912;-74
2021/11/11 11:23:17;;;;;;;16.73;10.87;;;;;;;;;;4963114;28;20229;-74
2021/11/11 11:25:57;;;;;;;15.13;11.67;;;;;;;;;;4982385;28;20225;-74
2021/11/11 11:28:30;;;;;;;16.47;11.33;;;;;;;;;;4965245;28;20237;-74
2021/11/11 11:30:58;;;;;;;18.60;12.20;;;;;;;;;;4982003;28;20225;-73
2021/11/11 11:33:40;;;;;;;14.93;11.30;;;;;;;;;;4988493;28;20289;-74
2021/11/11 11:36:08;;;;;;;15.47;11.50;;;;;;;;;;4951908;28;20218;-73
2021/11/11 11:38:39;;;;;;;13.50;11.10;;;;;;;;;;4975426;28;20218;-74
2021/11/11 11:41:26;;;;;;;12.77;9.87;;;;;;;;;;4978803;28;20228;-73
2021/11/11 11:43:52;;;;;;;11.90;9.13;;;;;;;;;;4963116;28;20302;-74
2021/11/11 11:46:24;;;;;;;10.40;8.00;;;;;;;;;;4980035;28;20245;-74
2021/11/11 11:48:50;;;;;;;14.30;9.07;;;;;;;;;;4961643;28;20260;-74
2021/11/11 11:51:19;;;;;;;13.57;8.53;;;;;;;;;;4964702;28;20650;-74
2021/11/11 11:54:33;;;;;;;11.50;8.77;;;;;;;;;;4962757;28;20229;-75
2021/11/11 11:56:48;;;;;;;12.17;8.30;;;;;;;;;;4956078;28;20225;-72
2021/11/11 11:59:17;;;;;;;13.43;8.47;;;;;;;;;;4946475;28;20612;-73
2021/11/11 12:04:31;;;;;;;11.23;8.83;;;;;;;;;;4988561;28;20228;-75
2021/11/11 12:07:08;;;;;;;11.73;9.43;;;;;;;;;;4969826;28;20299;-75
2021/11/11 12:15:19;;;;;;;13.30;9.37;;;;;;;;;;4966951;28;20605;-75
2021/11/11 12:18:26;;;;;;;13.00;9.43;;;;;;;;;;4992196;28;20221;-75
2021/11/11 12:41:05;;;;;;;13.03;10.03;;;;;;;;;;4973252;28;20228;-75
2021/11/11 12:43:33;;;;;;;12.33;9.83;;;;;;;;;;4962698;28;20221;-74
2021/11/11 12:46:01;;;;;;;15.60;10.03;;;;;;;;;;4973023;28;20691;-74
2021/11/11 12:48:27;;;;;;;11.63;9.80;;;;;;;;;;4981291;28;20228;-74
2021/11/11 12:51:01;;;;;;;10.73;9.53;;;;;;;;;;4959809;28;20222;-74
2021/11/11 12:53:32;;;;;;;14.27;9.97;;;;;;;;;;4972229;28;20390;-75
2021/11/11 12:56:01;;;;;;;15.57;10.10;;;;;;;;;;4960734;28;20238;-73
2021/11/11 12:58:30;;;;;;;14.13;10.03;;;;;;;;;;4973050;28;20779;-74
2021/11/11 13:01:02;;;;;;;14.57;10.67;;;;;;;;;;4970792;28;20225;-74
2021/11/11 13:03:48;;;;;;;18.73;10.43;;;;;;;;;;4955179;28;20225;-74
2021/11/11 13:06:38;;;;;;;14.73;10.80;;;;;;;;;;4968073;28;20218;-74
2021/11/11 13:09:14;;;;;;;15.33;10.47;;;;;;;;;;4958152;28;20226;-74
2021/11/11 13:11:41;;;;;;;15.90;11.47;;;;;;;;;;4970724;28;20244;-74
2021/11/11 13:14:08;;;;;;;15.30;11.57;;;;;;;;;;4953478;28;20242;-74
2021/11/11 13:16:38;;;;;;;17.57;11.90;;;;;;;;;;4970482;28;20229;-74
2021/11/11 13:19:04;;;;;;;19.20;12.97;;;;;;;;;;4949064;28;20350;-73
2021/11/11 13:21:52;;;;;;;19.20;13.90;;;;;;;;;;4951196;28;20249;-74
2021/11/11 13:27:51;;;;;;;20.33;13.30;;;;;;;;;;4955422;28;20300;-74
2021/11/11 15:17:08;;;;;;;21.03;16.43;;;;;;;;;;4973645;28;20222;-75
2021/11/11 15:57:03;;;;;;;23.77;18.20;;;;;;;;;;4972789;28;20248;-74
2021/11/11 16:20:19;;;;;;;49.80;35.83;;;;;;;;;;4990551;28;20308;-74
2021/11/11 16:27:46;;;;;;;71.10;45.60;;;;;;;;;;4949887;28;20214;-74
2021/11/11 16:30:17;;;;;;;115.73;70.43;;;;;;;;;;4986717;28;20224;-73
2021/11/11 16:32:42;;;;;;;35.33;27.00;;;;;;;;;;4956844;28;20230;-74
2021/11/11 16:35:09;;;;;;;26.83;22.10;;;;;;;;;;4987381;28;20312;-74
2021/11/11 16:37:36;;;;;;;27.87;22.13;;;;;;;;;;4968456;28;20218;-75
2021/11/11 16:40:03;;;;;;;25.23;21.53;;;;;;;;;;4957666;28;20316;-75
2021/11/11 16:42:30;;;;;;;28.60;22.93;;;;;;;;;;4938321;28;20229;-76
2021/11/11 16:44:58;;;;;;;31.67;23.77;;;;;;;;;;4956265;28;20747;-74
2021/11/11 16:47:25;;;;;;;30.73;23.70;;;;;;;;;;4953893;28;20221;-74
2021/11/11 16:49:55;;;;;;;34.13;25.40;;;;;;;;;;4955350;28;20659;-74
2021/11/11 16:52:21;;;;;;;32.43;24.17;;;;;;;;;;4957356;28;20664;-75
2021/11/11 16:54:46;;;;;;;33.80;25.53;;;;;;;;;;4957574;28;20236;-74
2021/11/11 16:57:12;;;;;;;38.83;27.03;;;;;;;;;;4973567;28;20221;-75
2021/11/11 16:59:38;;;;;;;39.83;28.00;;;;;;;;;;4958086;28;20770;-74
2021/11/11 17:02:09;;;;;;;37.07;27.83;;;;;;;;;;4973892;28;20218;-74
2021/11/11 17:04:34;;;;;;;40.50;26.93;;;;;;;;;;4991383;28;20308;-75
2021/11/11 17:07:00;;;;;;;37.03;26.93;;;;;;;;;;4974301;28;20214;-74
2021/11/11 17:09:26;;;;;;;39.40;27.90;;;;;;;;;;4973127;28;20245;-74
2021/11/11 17:11:51;;;;;;;40.30;27.67;;;;;;;;;;4957597;28;20303;-74
2021/11/11 17:14:17;;;;;;;43.93;28.10;;;;;;;;;;4964586;28;20237;-73
2021/11/11 17:16:49;;;;;;;39.73;27.93;;;;;;;;;;4946883;28;20218;-74
2021/11/11 17:19:14;;;;;;;44.77;30.07;;;;;;;;;;4954667;28;20293;-74
2021/11/11 17:21:45;;;;;;;42.17;29.40;;;;;;;;;;4949616;28;20279;-74
2021/11/11 17:24:16;;;;;;;42.37;29.67;;;;;;;;;;4917726;28;20225;-75
2021/11/11 17:26:46;;;;;;;48.33;31.53;;;;;;;;;;4974247;28;20217;-74
2021/11/11 17:29:13;;;;;;;44.80;29.13;;;;;;;;;;4973848;28;20222;-74
2021/11/11 17:31:38;;;;;;;48.27;31.97;;;;;;;;;;4959219;28;20221;-74
2021/11/11 17:34:04;;;;;;;46.73;32.83;;;;;;;;;;4990295;28;20240;-74
2021/11/11 17:36:34;;;;;;;51.67;32.53;;;;;;;;;;4954116;28;20214;-74
2021/11/11 17:39:03;;;;;;;52.80;34.60;;;;;;;;;;4966365;28;20598;-73
2021/11/11 17:41:31;;;;;;;50.30;33.80;;;;;;;;;;4956922;28;20222;-75
2021/11/11 17:43:58;;;;;;;47.23;33.43;;;;;;;;;;4958571;28;20686;-75
2021/11/11 17:46:28;;;;;;;51.00;34.40;;;;;;;;;;4973574;28;20221;-75
2021/11/11 17:48:54;;;;;;;53.83;35.20;;;;;;;;;;4959668;28;20221;-76
2021/11/11 17:51:53;;;;;;;50.03;34.20;;;;;;;;;;4943088;28;20240;-75
2021/11/11 17:54:28;;;;;;;49.33;30.40;;;;;;;;;;4976674;28;20280;-74
2021/11/11 17:56:58;;;;;;;53.63;32.53;;;;;;;;;;4961634;28;20221;-74
2021/11/11 17:59:28;;;;;;;51.40;32.67;;;;;;;;;;4977030;28;20228;-74
2021/11/11 18:01:56;;;;;;;56.40;34.67;;;;;;;;;;4961885;28;20233;-74
2021/11/11 18:04:21;;;;;;;55.20;35.03;;;;;;;;;;4961000;28;20221;-74
2021/11/11 18:07:00;;;;;;;53.80;34.40;;;;;;;;;;4977107;28;20229;-74
2021/11/11 18:09:43;;;;;;;61.83;35.47;;;;;;;;;;4978368;28;20713;-74
2021/11/11 18:12:10;;;;;;;58.60;35.07;;;;;;;;;;4979756;28;20704;-73
2021/11/11 18:14:39;;;;;;;64.90;35.73;;;;;;;;;;4969018;28;20222;-75
2021/11/11 18:17:16;;;;;;;57.50;34.77;;;;;;;;;;4978303;28;20221;-76
2021/11/11 18:19:41;;;;;;;57.10;36.30;;;;;;;;;;4976870;28;20280;-75
2021/11/11 18:22:10;;;;;;;60.33;35.57;;;;;;;;;;4976305;28;20252;-75
2021/11/11 18:24:38;;;;;;;63.83;38.13;;;;;;;;;;4957979;28;20218;-75
2021/11/11 18:27:04;;;;;;;62.63;37.67;;;;;;;;;;4975061;28;20724;-75